Time;durP1;ratioP1;P1;durP2;ratioP2;P2;SDS_P1;SDS_P2;PMS_P1;PMS_P2;Temp;Humidity;BMP_temperature;BMP_pressure;BME280_temperature;BME280_humidity;BME280_pressure;Samples;Min_cycle;Max_cycle;Signal;HPM_P1;HPM_P2
2021/11/21 00:01:20;;;;;;;28.63;12.87;;;;;;;;;;6241264;23;20182;-88
2021/11/21 00:04:32;;;;;;;30.57;13.57;;;;;;;;;;6241120;23;20185;-88
2021/11/21 00:07:44;;;;;;;28.00;13.63;;;;;;;;;;6240287;23;20178;-90
2021/11/21 00:10:57;;;;;;;27.53;12.63;;;;;;;;;;6240260;23;20178;-90
2021/11/21 00:14:09;;;;;;;27.25;12.73;;;;;;;;;;6241544;23;20166;-90
2021/11/21 00:17:22;;;;;;;28.30;12.73;;;;;;;;;;6240715;23;20171;-88
2021/11/21 00:20:34;;;;;;;26.13;12.13;;;;;;;;;;6241149;23;20165;-90
2021/11/21 00:23:46;;;;;;;25.17;11.77;;;;;;;;;;6241235;23;20174;-89
2021/11/21 00:26:58;;;;;;;26.63;11.50;;;;;;;;;;6239358;23;20257;-89
2021/11/21 00:30:10;;;;;;;28.30;13.07;;;;;;;;;;6238552;23;20194;-90
2021/11/21 00:33:23;;;;;;;29.02;12.85;;;;;;;;;;6238986;23;20190;-89
2021/11/21 00:36:35;;;;;;;26.60;12.40;;;;;;;;;;6238322;23;20333;-89
2021/11/21 00:39:46;;;;;;;33.27;12.67;;;;;;;;;;6238922;23;20175;-90
2021/11/21 00:42:58;;;;;;;28.73;12.40;;;;;;;;;;6238283;23;20170;-90
2021/11/21 00:46:10;;;;;;;28.07;12.90;;;;;;;;;;6239817;23;20421;-92
2021/11/21 00:49:24;;;;;;;30.20;12.57;;;;;;;;;;6240487;23;20175;-90
2021/11/21 00:52:37;;;;;;;29.17;13.67;;;;;;;;;;6240871;23;20190;-92
2021/11/21 00:55:53;;;;;;;29.33;13.07;;;;;;;;;;6242363;23;20175;-89
2021/11/21 00:59:05;;;;;;;26.43;11.87;;;;;;;;;;6238741;23;20248;-91
2021/11/21 01:02:18;;;;;;;28.60;12.60;;;;;;;;;;6239219;23;20163;-89
2021/11/21 01:05:31;;;;;;;25.17;12.00;;;;;;;;;;6240788;23;20174;-91
2021/11/21 01:08:43;;;;;;;26.93;13.03;;;;;;;;;;6240627;23;20171;-91
2021/11/21 01:11:57;;;;;;;28.00;13.23;;;;;;;;;;6240767;23;20171;-90
2021/11/21 01:15:10;;;;;;;29.20;12.27;;;;;;;;;;6242812;22;20174;-90
2021/11/21 01:18:22;;;;;;;31.03;13.37;;;;;;;;;;6242088;23;20247;-88
2021/11/21 01:21:35;;;;;;;28.90;12.67;;;;;;;;;;6241001;23;20266;-88
2021/11/21 01:24:47;;;;;;;27.97;12.90;;;;;;;;;;6241001;23;20166;-88
2021/11/21 01:27:59;;;;;;;31.67;13.40;;;;;;;;;;6242551;23;20158;-87
2021/11/21 01:31:11;;;;;;;30.47;13.57;;;;;;;;;;6242203;23;20170;-92
2021/11/21 01:34:24;;;;;;;28.23;12.83;;;;;;;;;;6241651;23;20293;-90
2021/11/21 01:37:37;;;;;;;29.67;13.77;;;;;;;;;;6242122;23;20170;-90
2021/11/21 01:40:49;;;;;;;31.27;13.83;;;;;;;;;;6243367;23;20267;-89
2021/11/21 01:44:01;;;;;;;28.50;12.73;;;;;;;;;;6242467;23;20178;-89
2021/11/21 01:47:13;;;;;;;35.33;15.27;;;;;;;;;;6242317;23;20618;-89
2021/11/21 01:50:27;;;;;;;35.20;15.50;;;;;;;;;;6242204;23;20175;-90
2021/11/21 01:53:40;;;;;;;31.30;12.87;;;;;;;;;;6241854;23;20268;-90
2021/11/21 01:56:52;;;;;;;33.23;14.10;;;;;;;;;;6241219;23;20177;-90
2021/11/21 02:00:05;;;;;;;30.70;13.80;;;;;;;;;;6227065;23;20219;-89
2021/11/21 02:03:24;;;;;;;32.57;13.80;;;;;;;;;;6260444;22;20170;-90
2021/11/21 02:06:46;;;;;;;31.47;14.70;;;;;;;;;;6242792;23;20243;-90
2021/11/21 02:10:00;;;;;;;32.87;14.43;;;;;;;;;;6241623;23;20170;-90
2021/11/21 02:13:12;;;;;;;28.83;13.60;;;;;;;;;;6224995;23;20255;-91
2021/11/21 02:16:26;;;;;;;31.23;14.33;;;;;;;;;;6241045;23;20197;-90
2021/11/21 02:19:38;;;;;;;29.93;14.60;;;;;;;;;;6239840;23;20497;-91
2021/11/21 02:22:52;;;;;;;30.58;14.15;;;;;;;;;;6241749;23;20171;-91
2021/11/21 02:26:04;;;;;;;30.40;14.00;;;;;;;;;;6240768;23;20219;-90
2021/11/21 02:29:17;;;;;;;41.20;17.80;;;;;;;;;;6241691;23;20171;-91
2021/11/21 02:32:29;;;;;;;45.17;19.97;;;;;;;;;;6241843;23;20286;-91
2021/11/21 02:35:42;;;;;;;47.13;21.17;;;;;;;;;;6242406;23;20221;-88
2021/11/21 02:38:54;;;;;;;47.23;21.77;;;;;;;;;;6240517;22;20291;-89
2021/11/21 02:42:06;;;;;;;45.83;20.63;;;;;;;;;;6241210;23;20166;-89
2021/11/21 02:45:19;;;;;;;42.73;20.00;;;;;;;;;;6241733;23;20245;-90
2021/11/21 02:48:32;;;;;;;42.83;20.13;;;;;;;;;;6241416;23;20510;-89
2021/11/21 02:51:44;;;;;;;44.03;19.83;;;;;;;;;;6240770;22;20163;-89
2021/11/21 02:54:58;;;;;;;49.17;20.80;;;;;;;;;;6241386;23;20178;-90
2021/11/21 02:58:10;;;;;;;47.73;21.07;;;;;;;;;;6240958;23;20258;-91
2021/11/21 03:01:23;;;;;;;48.17;22.10;;;;;;;;;;6240346;23;20165;-89
2021/11/21 03:04:35;;;;;;;52.00;22.03;;;;;;;;;;6240922;23;20154;-89
2021/11/21 03:07:47;;;;;;;47.07;20.90;;;;;;;;;;6241917;23;20198;-90
2021/11/21 03:11:04;;;;;;;43.23;20.77;;;;;;;;;;6242553;23;20246;-90
2021/11/21 03:14:19;;;;;;;44.50;19.90;;;;;;;;;;6241349;23;20190;-90
2021/11/21 03:17:31;;;;;;;45.83;19.27;;;;;;;;;;6241372;23;20170;-91
2021/11/21 03:20:43;;;;;;;41.03;19.83;;;;;;;;;;6241379;23;20557;-89
2021/11/21 03:23:55;;;;;;;45.10;20.37;;;;;;;;;;6242722;23;20170;-90
2021/11/21 03:27:09;;;;;;;47.87;21.13;;;;;;;;;;6240470;23;20172;-89
2021/11/21 03:30:22;;;;;;;41.77;19.20;;;;;;;;;;6240957;23;20428;-91
2021/11/21 03:33:34;;;;;;;51.00;21.53;;;;;;;;;;6240731;23;20190;-90
2021/11/21 03:36:46;;;;;;;45.70;21.63;;;;;;;;;;6239972;23;20198;-91
2021/11/21 03:39:58;;;;;;;46.33;20.70;;;;;;;;;;6241552;23;20209;-90
2021/11/21 03:43:11;;;;;;;47.83;21.03;;;;;;;;;;6240619;23;20298;-91
2021/11/21 03:46:23;;;;;;;42.63;20.50;;;;;;;;;;6239288;23;20170;-89
2021/11/21 03:49:35;;;;;;;44.67;20.50;;;;;;;;;;6242254;23;20265;-92
2021/11/21 03:52:48;;;;;;;44.20;20.33;;;;;;;;;;6214693;23;20491;-91
2021/11/21 03:56:01;;;;;;;41.87;19.00;;;;;;;;;;6241094;23;20170;-89
2021/11/21 03:59:14;;;;;;;45.10;19.40;;;;;;;;;;6240156;23;20193;-91
2021/11/21 04:02:26;;;;;;;40.20;19.10;;;;;;;;;;6240702;23;20222;-92
2021/11/21 04:06:06;;;;;;;44.33;19.30;;;;;;;;;;6240627;22;20170;-90
2021/11/21 04:09:18;;;;;;;46.23;19.67;;;;;;;;;;6240453;23;20166;-90
2021/11/21 04:12:30;;;;;;;41.57;18.17;;;;;;;;;;6242363;23;20218;-89
2021/11/21 04:15:43;;;;;;;42.23;18.00;;;;;;;;;;6240157;23;20167;-89
2021/11/21 04:18:55;;;;;;;42.13;18.50;;;;;;;;;;6241801;23;20185;-90
2021/11/21 04:22:07;;;;;;;44.57;19.47;;;;;;;;;;6241309;23;20182;-89
2021/11/21 04:25:19;;;;;;;42.83;19.07;;;;;;;;;;6241598;23;20159;-89
2021/11/21 04:28:31;;;;;;;43.43;18.70;;;;;;;;;;6240526;23;20175;-88
2021/11/21 04:31:44;;;;;;;43.00;19.03;;;;;;;;;;6241403;23;20243;-89
2021/11/21 04:34:56;;;;;;;43.07;18.67;;;;;;;;;;6241363;23;20284;-89
2021/11/21 04:38:08;;;;;;;40.30;17.90;;;;;;;;;;6241958;23;20219;-90
2021/11/21 04:41:22;;;;;;;39.37;18.70;;;;;;;;;;6240866;23;20175;-90
2021/11/21 04:44:33;;;;;;;42.03;18.73;;;;;;;;;;6240541;23;20245;-89
2021/11/21 04:47:46;;;;;;;42.07;18.90;;;;;;;;;;6239234;23;20170;-90
2021/11/21 04:50:59;;;;;;;43.07;18.47;;;;;;;;;;6239697;23;20175;-89
2021/11/21 04:54:14;;;;;;;40.23;18.57;;;;;;;;;;6239237;23;20193;-90
2021/11/21 04:57:25;;;;;;;42.07;18.47;;;;;;;;;;6240326;23;20217;-92
2021/11/21 05:00:42;;;;;;;42.83;19.37;;;;;;;;;;6240020;23;20174;-89
2021/11/21 05:03:55;;;;;;;42.43;18.10;;;;;;;;;;6240605;23;20175;-90
2021/11/21 05:07:07;;;;;;;44.33;18.87;;;;;;;;;;6242351;23;20167;-89
2021/11/21 05:10:19;;;;;;;44.87;18.33;;;;;;;;;;6241592;23;20224;-91
2021/11/21 05:13:31;;;;;;;45.07;18.30;;;;;;;;;;6241872;23;20269;-90
2021/11/21 05:16:44;;;;;;;50.70;19.60;;;;;;;;;;6242697;23;20163;-92
2021/11/21 05:19:59;;;;;;;45.83;20.20;;;;;;;;;;6242115;23;20177;-90
2021/11/21 05:23:10;;;;;;;41.83;18.43;;;;;;;;;;6241211;23;20500;-90
2021/11/21 05:26:23;;;;;;;43.60;19.50;;;;;;;;;;6241326;23;20166;-90
2021/11/21 05:29:35;;;;;;;43.07;19.47;;;;;;;;;;6241380;23;20170;-90
2021/11/21 05:32:47;;;;;;;43.53;19.50;;;;;;;;;;6241718;23;20167;-89
2021/11/21 05:36:00;;;;;;;44.30;19.00;;;;;;;;;;6241294;23;20251;-91
2021/11/21 05:39:13;;;;;;;42.60;19.20;;;;;;;;;;6240113;23;20189;-90
2021/11/21 05:42:25;;;;;;;43.40;19.13;;;;;;;;;;6241068;23;20169;-91
2021/11/21 05:45:37;;;;;;;45.37;19.17;;;;;;;;;;6240381;23;20252;-90
2021/11/21 05:48:52;;;;;;;51.27;20.93;;;;;;;;;;6241960;22;20235;-91
2021/11/21 05:52:06;;;;;;;45.40;19.90;;;;;;;;;;6240485;23;20239;-90
2021/11/21 05:55:19;;;;;;;45.33;19.87;;;;;;;;;;6239291;23;20190;-91
2021/11/21 05:58:33;;;;;;;47.90;20.67;;;;;;;;;;6239987;23;20171;-89
2021/11/21 06:01:44;;;;;;;48.17;20.33;;;;;;;;;;6242323;23;20170;-88
2021/11/21 06:04:56;;;;;;;50.97;20.20;;;;;;;;;;6242165;23;20167;-90
2021/11/21 06:08:09;;;;;;;45.90;19.60;;;;;;;;;;6244363;23;20220;-91
2021/11/21 06:11:21;;;;;;;54.67;22.67;;;;;;;;;;6242840;23;20170;-90
2021/11/21 06:14:33;;;;;;;51.67;21.50;;;;;;;;;;6243613;23;20222;-89
2021/11/21 06:17:45;;;;;;;49.50;20.23;;;;;;;;;;6243216;23;20162;-90
2021/11/21 06:20:57;;;;;;;46.07;19.67;;;;;;;;;;6243079;23;20178;-89
2021/11/21 06:24:10;;;;;;;47.00;19.50;;;;;;;;;;6241559;23;20331;-88
2021/11/21 06:27:23;;;;;;;45.80;19.73;;;;;;;;;;6243043;23;20509;-89
2021/11/21 06:30:35;;;;;;;45.67;19.87;;;;;;;;;;6243251;23;20562;-90
2021/11/21 06:33:47;;;;;;;47.27;19.77;;;;;;;;;;6244456;23;20198;-92
2021/11/21 06:36:59;;;;;;;48.57;20.70;;;;;;;;;;6242561;23;20190;-90
2021/11/21 06:40:13;;;;;;;45.77;19.60;;;;;;;;;;6239569;23;20213;-89
2021/11/21 06:43:25;;;;;;;48.50;21.43;;;;;;;;;;6241963;23;20516;-88
2021/11/21 06:46:38;;;;;;;46.53;20.00;;;;;;;;;;6243045;23;20213;-90
2021/11/21 06:49:50;;;;;;;43.50;19.37;;;;;;;;;;6242351;23;20166;-88
2021/11/21 06:53:02;;;;;;;43.33;19.07;;;;;;;;;;6242228;23;20173;-90
2021/11/21 06:56:15;;;;;;;44.70;19.43;;;;;;;;;;6241701;23;20197;-91
2021/11/21 06:59:27;;;;;;;47.47;19.93;;;;;;;;;;6241212;23;20186;-90
2021/11/21 07:02:39;;;;;;;47.60;20.40;;;;;;;;;;6242316;23;20174;-90
2021/11/21 07:05:51;;;;;;;47.17;21.17;;;;;;;;;;6242269;23;20182;-90
2021/11/21 07:09:03;;;;;;;47.50;20.80;;;;;;;;;;6240884;23;20163;-90
2021/11/21 07:12:17;;;;;;;45.93;19.87;;;;;;;;;;6244426;22;20174;-90
2021/11/21 07:15:29;;;;;;;46.63;21.63;;;;;;;;;;6243857;23;20190;-91
2021/11/21 07:18:41;;;;;;;44.77;20.73;;;;;;;;;;6243655;23;20171;-90
2021/11/21 07:21:52;;;;;;;46.10;20.47;;;;;;;;;;6242921;23;20174;-91
2021/11/21 07:25:07;;;;;;;48.23;20.53;;;;;;;;;;6241937;23;20166;-89
2021/11/21 07:28:20;;;;;;;48.83;20.73;;;;;;;;;;6259863;23;20170;-91
2021/11/21 07:31:33;;;;;;;44.47;19.73;;;;;;;;;;6243094;23;20264;-90
2021/11/21 07:34:45;;;;;;;44.60;19.87;;;;;;;;;;6242548;23;20190;-90
2021/11/21 07:37:56;;;;;;;47.30;19.90;;;;;;;;;;6243968;23;20173;-89
2021/11/21 07:41:09;;;;;;;48.37;20.17;;;;;;;;;;6244796;23;20614;-91
2021/11/21 07:44:22;;;;;;;45.63;19.27;;;;;;;;;;6242239;23;20170;-88
2021/11/21 07:47:34;;;;;;;42.40;19.40;;;;;;;;;;6243464;23;20194;-88
2021/11/21 07:50:46;;;;;;;43.07;18.67;;;;;;;;;;6242345;23;20273;-90
2021/11/21 07:53:57;;;;;;;40.83;17.83;;;;;;;;;;6241688;23;20166;-90
2021/11/21 07:57:13;;;;;;;47.40;18.97;;;;;;;;;;6241142;23;20174;-90
2021/11/21 08:00:29;;;;;;;44.00;18.10;;;;;;;;;;6241013;23;20170;-92
2021/11/21 08:03:41;;;;;;;42.17;18.30;;;;;;;;;;6240229;23;20214;-88
2021/11/21 08:06:53;;;;;;;40.73;18.70;;;;;;;;;;6241037;23;20171;-92
2021/11/21 08:10:06;;;;;;;43.07;17.83;;;;;;;;;;6241249;23;20170;-88
2021/11/21 08:13:18;;;;;;;42.43;17.37;;;;;;;;;;6242333;23;20170;-88
2021/11/21 08:16:32;;;;;;;37.67;16.47;;;;;;;;;;6240988;23;20171;-88
2021/11/21 08:19:44;;;;;;;41.33;16.70;;;;;;;;;;6242065;23;20158;-89
2021/11/21 08:22:56;;;;;;;38.80;16.17;;;;;;;;;;6241119;23;20194;-89
2021/11/21 08:26:10;;;;;;;39.40;17.37;;;;;;;;;;6241077;23;20166;-90
2021/11/21 08:29:22;;;;;;;43.67;17.40;;;;;;;;;;6241819;22;20289;-90
2021/11/21 08:32:36;;;;;;;41.00;16.93;;;;;;;;;;6243357;23;20178;-89
2021/11/21 08:35:48;;;;;;;44.87;18.10;;;;;;;;;;6242370;23;20280;-90
2021/11/21 08:39:00;;;;;;;40.27;17.63;;;;;;;;;;6241717;23;20214;-89
2021/11/21 08:42:12;;;;;;;43.47;18.63;;;;;;;;;;6241848;23;20167;-89
2021/11/21 08:45:24;;;;;;;37.30;16.13;;;;;;;;;;6241708;23;20174;-88
2021/11/21 08:48:38;;;;;;;40.10;17.37;;;;;;;;;;6240544;23;20174;-90
2021/11/21 08:51:50;;;;;;;40.73;17.90;;;;;;;;;;6240066;23;20170;-90
2021/11/21 08:55:02;;;;;;;41.33;17.53;;;;;;;;;;6240560;23;20194;-88
2021/11/21 08:58:16;;;;;;;41.73;18.17;;;;;;;;;;6241984;23;20170;-91
2021/11/21 09:01:28;;;;;;;42.87;17.97;;;;;;;;;;6241515;23;20493;-90
2021/11/21 09:04:41;;;;;;;44.07;18.67;;;;;;;;;;6241507;23;20162;-88
2021/11/21 09:07:53;;;;;;;41.13;18.10;;;;;;;;;;6241209;23;20183;-90
2021/11/21 09:11:05;;;;;;;41.45;18.23;;;;;;;;;;6241469;23;20247;-89
2021/11/21 09:14:17;;;;;;;42.40;18.30;;;;;;;;;;6242657;23;20692;-92
2021/11/21 09:17:28;;;;;;;46.93;18.57;;;;;;;;;;6243822;23;20182;-90
2021/11/21 09:20:43;;;;;;;41.87;19.23;;;;;;;;;;6243265;23;20241;-90
2021/11/21 09:23:55;;;;;;;42.13;18.10;;;;;;;;;;6242846;23;20582;-90
2021/11/21 09:27:07;;;;;;;44.57;17.87;;;;;;;;;;6244576;23;20159;-88
2021/11/21 09:30:41;;;;;;;40.93;18.80;;;;;;;;;;6243140;23;20201;-89
2021/11/21 09:33:53;;;;;;;42.23;18.20;;;;;;;;;;6245693;23;20174;-90
2021/11/21 09:37:08;;;;;;;41.87;17.43;;;;;;;;;;6245345;23;20202;-90
2021/11/21 09:40:21;;;;;;;44.23;18.67;;;;;;;;;;6244619;23;20210;-89
2021/11/21 09:43:35;;;;;;;43.13;19.00;;;;;;;;;;6249716;23;20193;-88
2021/11/21 09:46:47;;;;;;;43.80;17.80;;;;;;;;;;6244060;23;20239;-89
2021/11/21 09:50:01;;;;;;;43.03;18.10;;;;;;;;;;6245120;23;20174;-90
2021/11/21 09:53:15;;;;;;;43.00;18.23;;;;;;;;;;6243683;23;20186;-88
2021/11/21 09:56:28;;;;;;;42.27;18.33;;;;;;;;;;6245096;23;20237;-89
2021/11/21 12:37:53;;;;;;;32.35;13.98;;;;;;;;;;6184940;22;20206;-89
2021/11/21 12:41:09;;;;;;;42.03;16.17;;;;;;;;;;6243252;23;20187;-90
2021/11/21 12:44:24;;;;;;;41.60;15.60;;;;;;;;;;6241874;23;20170;-89
2021/11/21 12:47:37;;;;;;;40.58;15.10;;;;;;;;;;6239649;23;20175;-90
2021/11/21 12:50:50;;;;;;;37.80;14.93;;;;;;;;;;6243273;23;20289;-92
2021/11/21 12:54:07;;;;;;;38.40;15.18;;;;;;;;;;6241294;23;20174;-92
2021/11/21 12:57:19;;;;;;;35.97;14.93;;;;;;;;;;6241837;23;20487;-92
2021/11/21 13:00:33;;;;;;;42.33;16.35;;;;;;;;;;6241955;22;20174;-90
2021/11/21 13:03:45;;;;;;;37.53;15.43;;;;;;;;;;6242038;23;20528;-90
2021/11/21 13:07:41;;;;;;;39.88;14.82;;;;;;;;;;6241225;23;20248;-93
2021/11/21 13:10:58;;;;;;;39.22;15.15;;;;;;;;;;6243496;22;20177;-91
2021/11/21 13:14:13;;;;;;;32.77;14.17;;;;;;;;;;6228024;23;20167;-91
2021/11/21 13:17:25;;;;;;;36.33;14.40;;;;;;;;;;6243713;23;20178;-92
2021/11/21 13:20:40;;;;;;;37.90;15.57;;;;;;;;;;6261022;22;20186;-90
2021/11/21 13:23:53;;;;;;;39.73;16.00;;;;;;;;;;6243898;23;20729;-89
2021/11/21 13:27:08;;;;;;;38.57;15.83;;;;;;;;;;6243500;23;20172;-92
2021/11/21 13:30:21;;;;;;;39.92;14.73;;;;;;;;;;6243434;23;20200;-90
2021/11/21 13:33:42;;;;;;;37.87;15.20;;;;;;;;;;6244872;23;20179;-90
2021/11/21 13:37:00;;;;;;;38.55;16.02;;;;;;;;;;6246365;23;20194;-90
2021/11/21 13:40:14;;;;;;;39.33;15.07;;;;;;;;;;6228889;23;20178;-91
2021/11/21 13:43:38;;;;;;;40.67;16.37;;;;;;;;;;6242976;23;20241;-88
2021/11/21 13:46:51;;;;;;;43.67;16.10;;;;;;;;;;6243470;23;20603;-91
2021/11/21 13:50:04;;;;;;;45.33;17.57;;;;;;;;;;6244819;23;20170;-91
2021/11/21 13:53:16;;;;;;;39.80;15.90;;;;;;;;;;6248253;23;20177;-91
2021/11/21 13:56:28;;;;;;;39.97;15.87;;;;;;;;;;6246036;23;20194;-90
2021/11/21 13:59:45;;;;;;;38.63;16.40;;;;;;;;;;6265893;23;20169;-91
2021/11/21 14:02:58;;;;;;;40.07;14.70;;;;;;;;;;6245853;23;20498;-91
2021/11/21 14:06:13;;;;;;;43.27;15.30;;;;;;;;;;6244464;23;20246;-91
2021/11/21 14:09:30;;;;;;;35.63;15.57;;;;;;;;;;6245797;23;20217;-91
2021/11/21 14:12:44;;;;;;;43.67;19.57;;;;;;;;;;6246598;23;20171;-89
2021/11/21 14:16:08;;;;;;;37.90;14.90;;;;;;;;;;6246617;23;20198;-89
2021/11/21 14:19:30;;;;;;;33.60;14.33;;;;;;;;;;6246183;23;20175;-93
2021/11/21 14:22:43;;;;;;;32.87;14.37;;;;;;;;;;6247877;23;20175;-91
2021/11/21 14:25:59;;;;;;;32.60;13.77;;;;;;;;;;6263899;22;20221;-90
2021/11/21 14:32:44;;;;;;;28.93;12.67;;;;;;;;;;6263633;22;20175;-92
2021/11/21 14:35:58;;;;;;;29.27;12.20;;;;;;;;;;6243757;23;20318;-90
2021/11/21 14:39:15;;;;;;;31.33;13.87;;;;;;;;;;6244873;23;20190;-91
2021/11/21 14:42:28;;;;;;;27.83;11.80;;;;;;;;;;6244391;23;20171;-90
2021/11/21 14:45:43;;;;;;;26.13;11.60;;;;;;;;;;6246100;23;20227;-90
2021/11/21 14:49:02;;;;;;;28.23;12.80;;;;;;;;;;6248329;23;20163;-90
2021/11/21 14:52:21;;;;;;;24.43;10.97;;;;;;;;;;6244137;23;20166;-89
2021/11/21 14:55:38;;;;;;;30.33;12.20;;;;;;;;;;6245740;22;20206;-91
2021/11/21 14:58:53;;;;;;;30.50;11.80;;;;;;;;;;6244858;23;20178;-90
2021/11/21 15:02:05;;;;;;;23.17;10.57;;;;;;;;;;6245356;23;20543;-91
2021/11/21 15:05:19;;;;;;;25.50;10.97;;;;;;;;;;6244816;23;20169;-91
2021/11/21 15:11:57;;;;;;;30.13;11.40;;;;;;;;;;6245310;23;20167;-91
2021/11/21 15:15:10;;;;;;;25.17;11.27;;;;;;;;;;6245938;23;20618;-91
2021/11/21 15:18:28;;;;;;;23.10;10.77;;;;;;;;;;6246400;23;20174;-90
2021/11/21 15:21:45;;;;;;;24.23;11.27;;;;;;;;;;6246977;23;20155;-91
2021/11/21 15:24:58;;;;;;;26.27;11.00;;;;;;;;;;6242973;23;20184;-90
2021/11/21 15:28:11;;;;;;;25.57;11.07;;;;;;;;;;6244954;23;20170;-91
2021/11/21 15:31:24;;;;;;;29.43;12.20;;;;;;;;;;6246082;23;20162;-92
2021/11/21 15:34:39;;;;;;;29.13;12.03;;;;;;;;;;6246561;23;20167;-93
2021/11/21 15:37:59;;;;;;;22.43;10.50;;;;;;;;;;6246037;23;20262;-93
2021/11/21 15:41:20;;;;;;;26.90;11.07;;;;;;;;;;6265739;22;20171;-90
2021/11/21 15:44:40;;;;;;;27.17;11.43;;;;;;;;;;6247033;23;20170;-91
2021/11/21 15:51:32;;;;;;;29.50;12.37;;;;;;;;;;6263839;23;20279;-91
2021/11/21 15:55:00;;;;;;;28.53;12.37;;;;;;;;;;6245204;22;20171;-91
2021/11/21 15:58:14;;;;;;;35.20;13.33;;;;;;;;;;6243351;23;20170;-92
2021/11/21 16:01:29;;;;;;;32.43;11.73;;;;;;;;;;6246640;23;20238;-92
2021/11/21 16:04:43;;;;;;;31.83;12.37;;;;;;;;;;6245097;23;20170;-90
2021/11/21 16:07:58;;;;;;;35.47;13.80;;;;;;;;;;6244479;23;20155;-89
2021/11/21 16:11:19;;;;;;;30.87;12.20;;;;;;;;;;6244362;23;20194;-90
2021/11/21 16:14:33;;;;;;;36.53;13.80;;;;;;;;;;6242477;23;20170;-91
2021/11/21 16:21:22;;;;;;;29.50;12.37;;;;;;;;;;6242969;23;20581;-91
2021/11/21 16:24:35;;;;;;;30.00;12.57;;;;;;;;;;6243763;23;20233;-90
2021/11/21 16:27:52;;;;;;;33.10;12.97;;;;;;;;;;6243761;23;20162;-92
2021/11/21 16:31:08;;;;;;;28.20;12.00;;;;;;;;;;6243209;23;20174;-90
2021/11/21 16:34:23;;;;;;;34.60;13.90;;;;;;;;;;6243897;23;20170;-90
2021/11/21 16:37:38;;;;;;;30.50;13.30;;;;;;;;;;6244533;23;20213;-90
2021/11/21 16:40:52;;;;;;;32.83;13.17;;;;;;;;;;6244939;23;20174;-91
2021/11/21 16:47:43;;;;;;;35.03;14.43;;;;;;;;;;6242288;23;20158;-89
2021/11/21 16:50:59;;;;;;;33.60;13.33;;;;;;;;;;6241628;23;20174;-91
2021/11/21 16:54:12;;;;;;;41.03;14.93;;;;;;;;;;6243474;23;20166;-91
2021/11/21 16:57:27;;;;;;;40.93;16.13;;;;;;;;;;6260540;23;20194;-90
2021/11/21 17:00:47;;;;;;;36.67;14.67;;;;;;;;;;6226538;23;20174;-89
2021/11/21 17:04:00;;;;;;;36.20;13.23;;;;;;;;;;6259344;23;20158;-88
2021/11/21 17:07:15;;;;;;;36.73;14.77;;;;;;;;;;6240496;23;20166;-90
2021/11/21 17:10:28;;;;;;;36.93;14.27;;;;;;;;;;6241001;23;20166;-89
2021/11/21 17:13:41;;;;;;;39.43;14.93;;;;;;;;;;6241560;23;20190;-90
2021/11/21 17:16:58;;;;;;;37.30;14.87;;;;;;;;;;6239563;23;20284;-89
2021/11/21 17:20:25;;;;;;;38.23;14.83;;;;;;;;;;6241893;23;20183;-90
2021/11/21 17:23:40;;;;;;;35.77;14.80;;;;;;;;;;6257084;23;20170;-89
2021/11/21 17:26:52;;;;;;;41.90;16.43;;;;;;;;;;6240975;23;20191;-90
2021/11/21 17:30:05;;;;;;;39.13;15.60;;;;;;;;;;6242266;23;20257;-90
2021/11/21 17:33:22;;;;;;;39.73;15.37;;;;;;;;;;6241759;23;20171;-91
2021/11/21 17:36:47;;;;;;;39.63;14.07;;;;;;;;;;6242014;22;20194;-89
2021/11/21 17:40:03;;;;;;;39.33;15.67;;;;;;;;;;6244224;23;20221;-90
2021/11/21 17:43:25;;;;;;;37.00;14.63;;;;;;;;;;6245589;23;20171;-89
2021/11/21 17:46:41;;;;;;;39.73;15.37;;;;;;;;;;6244339;23;20174;-90
2021/11/21 17:49:57;;;;;;;35.60;15.07;;;;;;;;;;6242035;22;20266;-90
2021/11/21 17:53:09;;;;;;;40.00;15.03;;;;;;;;;;6242689;23;20505;-91
2021/11/21 17:56:29;;;;;;;37.93;14.67;;;;;;;;;;6244793;23;20198;-89
2021/11/21 17:59:42;;;;;;;46.37;16.37;;;;;;;;;;6244145;23;20171;-88
2021/11/21 18:02:56;;;;;;;42.97;16.07;;;;;;;;;;6243623;23;20170;-90
2021/11/21 18:06:12;;;;;;;37.67;14.00;;;;;;;;;;6244009;23;20167;-90
2021/11/21 18:09:24;;;;;;;36.27;14.47;;;;;;;;;;6244560;23;20185;-91
2021/11/21 18:12:39;;;;;;;40.50;15.03;;;;;;;;;;6243467;23;20328;-91
2021/11/21 18:15:52;;;;;;;39.23;15.23;;;;;;;;;;6243728;23;20286;-89
2021/11/21 18:19:04;;;;;;;40.70;15.30;;;;;;;;;;6242596;23;20165;-91
2021/11/21 18:22:19;;;;;;;43.93;16.40;;;;;;;;;;6245535;23;20175;-91
2021/11/21 18:25:34;;;;;;;41.00;15.30;;;;;;;;;;6243519;23;20485;-90
2021/11/21 18:28:46;;;;;;;43.23;15.20;;;;;;;;;;6243637;22;20174;-90
2021/11/21 18:31:59;;;;;;;45.47;15.70;;;;;;;;;;6244882;23;20182;-89
2021/11/21 18:35:14;;;;;;;41.83;16.40;;;;;;;;;;6245011;23;20197;-90
2021/11/21 18:38:32;;;;;;;47.57;16.50;;;;;;;;;;6244135;23;20191;-91
2021/11/21 18:41:44;;;;;;;45.97;16.27;;;;;;;;;;6242352;23;20166;-90
2021/11/21 18:44:59;;;;;;;41.30;16.40;;;;;;;;;;6244212;23;20641;-89
2021/11/21 18:48:12;;;;;;;46.03;16.33;;;;;;;;;;6244406;23;20179;-91
2021/11/21 18:51:24;;;;;;;41.30;16.53;;;;;;;;;;6244764;23;20178;-90
2021/11/21 18:54:38;;;;;;;46.97;15.77;;;;;;;;;;6246077;23;20198;-92
2021/11/21 18:57:52;;;;;;;48.00;16.33;;;;;;;;;;6244615;23;20182;-91
2021/11/21 19:01:11;;;;;;;45.17;16.63;;;;;;;;;;6244681;23;20186;-91
2021/11/21 19:04:25;;;;;;;46.97;15.77;;;;;;;;;;6242698;23;20223;-89
2021/11/21 19:07:42;;;;;;;54.30;17.17;;;;;;;;;;6243228;23;20256;-88
2021/11/21 19:10:55;;;;;;;50.27;17.33;;;;;;;;;;6245966;23;20158;-91
2021/11/21 19:14:07;;;;;;;52.27;16.70;;;;;;;;;;6244075;23;20170;-91
2021/11/21 19:17:19;;;;;;;47.53;17.03;;;;;;;;;;6242702;23;20190;-91
2021/11/21 19:20:32;;;;;;;46.50;14.83;;;;;;;;;;6228547;23;20166;-92
2021/11/21 19:23:45;;;;;;;42.50;15.13;;;;;;;;;;6243461;23;20170;-92
2021/11/21 19:27:01;;;;;;;42.97;15.83;;;;;;;;;;6245659;23;20201;-89
2021/11/21 19:30:17;;;;;;;41.70;15.07;;;;;;;;;;6244677;23;20245;-89
2021/11/21 19:33:32;;;;;;;36.90;14.77;;;;;;;;;;6244516;23;20158;-90
2021/11/21 19:36:44;;;;;;;34.83;13.03;;;;;;;;;;6245609;23;20190;-91
2021/11/21 19:40:03;;;;;;;37.03;13.73;;;;;;;;;;6263338;23;20166;-91
2021/11/21 19:43:17;;;;;;;40.67;15.23;;;;;;;;;;6243773;23;20198;-91
2021/11/21 19:46:30;;;;;;;40.97;14.80;;;;;;;;;;6231076;23;20151;-88
2021/11/21 19:49:43;;;;;;;40.90;14.70;;;;;;;;;;6245944;22;20221;-92
2021/11/21 19:52:55;;;;;;;52.40;15.53;;;;;;;;;;6246979;22;20178;-92
2021/11/21 19:56:07;;;;;;;46.80;15.83;;;;;;;;;;6245885;23;20167;-90
2021/11/21 19:59:23;;;;;;;51.50;18.00;;;;;;;;;;6244135;23;20178;-91
2021/11/21 20:02:36;;;;;;;43.10;15.50;;;;;;;;;;6245888;23;20234;-89
2021/11/21 23:19:58;;;;;;;32.00;11.97;;;;;;;;;;6227262;22;20214;-90
2021/11/21 23:23:10;;;;;;;31.40;11.87;;;;;;;;;;6246375;23;20175;-91
2021/11/21 23:26:22;;;;;;;30.67;11.10;;;;;;;;;;6246314;23;20661;-90
2021/11/21 23:29:34;;;;;;;30.47;11.43;;;;;;;;;;6247746;22;20182;-91
2021/11/21 23:32:49;;;;;;;31.93;12.07;;;;;;;;;;6247400;22;20209;-89
2021/11/21 23:36:02;;;;;;;36.43;12.50;;;;;;;;;;6245851;23;20207;-90
2021/11/21 23:39:14;;;;;;;29.00;11.70;;;;;;;;;;6246333;23;20174;-90
2021/11/21 23:42:26;;;;;;;30.63;11.73;;;;;;;;;;6247962;23;20166;-89
2021/11/21 23:45:38;;;;;;;30.83;11.83;;;;;;;;;;6246719;23;20461;-91
2021/11/21 23:48:50;;;;;;;30.20;10.97;;;;;;;;;;6245737;23;20166;-91
2021/11/21 23:52:04;;;;;;;27.83;10.97;;;;;;;;;;6244604;23;20158;-90
2021/11/21 23:55:18;;;;;;;33.90;11.70;;;;;;;;;;6230100;23;20166;-90
2021/11/21 23:58:29;;;;;;;30.43;11.53;;;;;;;;;;6245138;22;20194;-89
